Date,TemperatureHighF,TemperatureAvgF,TemperatureLowF,DewpointHighF,DewpointAvgF,DewpointLowF,HumidityHigh,HumidityAvg,HumidityLow,PressureMaxIn,PressureMinIn,WindSpeedMaxMPH,WindSpeedAvgMPH,GustSpeedMaxMPH,PrecipitationSumIn
2014-1-1,36.0,32.4,27.0,21.5,17.2,14.1,64,53,41,30.39,30.12,13,0,13,0.00
2014-1-2,43.2,35.4,27.0,26.5,18.9,12.5,62,51,34,30.35,29.73,10,0,16,0.00
2014-1-3,45.7,33.2,22.1,32.8,21.3,11.5,86,64,39,30.07,29.49,19,2,28,0.01
2014-1-4,22.7,14.9,3.2,18.1,9.1,-3.5,85,78,68,30.66,30.07,7,0,11,0.00
2014-1-5,3.2,-1.9,-5.2,-3.5,-10.4,-14.8,73,66,55,31.06,30.65,7,0,7,0.00
2014-1-6,17.8,7.4,-2.6,13.2,0.5,-10.3,82,73,64,30.90,30.37,2,0,2,0.00
2014-1-7,30.6,25.1,17.3,25.9,20.3,11.8,89,82,68,30.37,30.07,2,0,3,0.00
2014-1-8,38.5,32.1,26.7,28.2,24.3,19.8,87,73,53,30.08,29.77,9,0,11,0.08
2014-1-9,37.3,32.1,26.7,26.7,19.4,10.8,77,60,44,29.88,29.69,10,0,11,0.02
2014-1-10,38.3,33.3,26.4,22.8,19.7,12.0,80,57,45,29.95,29.69,17,1,25,0.00
2014-1-11,48.0,36.3,28.4,35.1,25.7,17.8,88,66,45,29.93,29.33,14,1,22,0.03
2014-1-12,35.8,32.2,29.4,23.5,17.4,12.0,71,54,42,29.99,29.39,22,2,27,0.00
2014-1-13,44.6,38.1,26.1,26.4,22.3,18.4,88,55,36,30.34,29.89,22,2,24,0.00
2014-1-14,40.5,35.4,24.2,29.0,24.6,17.5,92,66,43,30.57,30.34,11,1,14,0.14
2014-1-15,44.9,40.5,34.1,22.2,17.1,9.0,60,39,25,30.35,30.23,13,1,15,0.07
2014-1-16,43.2,36.7,31.3,21.9,18.0,13.8,61,47,31,30.45,30.31,9,0,10,0.00
2014-1-17,45.7,37.5,30.9,22.9,17.6,8.1,65,45,29,30.32,30.17,9,0,13,0.00
2014-1-18,41.8,32.6,24.1,24.4,20.3,15.8,74,61,45,30.39,30.13,3,0,3,0.00
2014-1-19,47.1,38.5,29.7,23.4,18.6,12.3,60,45,27,30.34,29.96,6,0,9,0.00
2014-1-20,34.9,27.6,23.3,20.9,17.1,13.6,70,64,53,30.58,30.34,5,0,5,0.00
2014-1-21,43.8,34.5,27.3,24.1,20.3,13.6,70,56,41,30.47,30.26,8,0,8,0.00
2014-1-22,30.7,28.4,25.6,26.3,23.0,17.9,87,80,64,30.54,30.21,2,0,3,0.01
2014-1-23,26.6,25.3,23.2,22.2,21.3,18.9,88,85,78,30.62,30.23,1,0,2,0.00
2014-1-24,37.5,30.7,24.2,27.7,23.4,19.2,87,74,65,30.60,30.42,3,0,3,0.00
2014-1-25,45.7,35.6,28.1,26.9,23.6,17.1,78,62,41,30.44,30.11,9,0,20,0.04
2014-1-26,37.9,26.9,16.7,28.4,14.0,2.6,89,59,32,30.44,30.02,11,0,13,0.01
2014-1-27,19.9,14.3,10.0,8.3,3.7,-2.3,73,63,38,30.61,30.42,4,0,5,0.00
2014-1-28,34.6,15.4,4.3,16.8,4.2,-2.1,78,62,26,30.60,30.22,3,0,7,0.00
2014-1-29,38.6,33.6,22.2,30.5,24.2,17.0,88,69,54,29.74,29.53,13,1,18,0.04
2014-1-30,21.8,10.4,6.7,17.2,3.8,-0.6,84,74,64,30.18,29.74,4,0,11,0.00
2014-1-31,21.6,14.8,8.3,13.1,7.4,1.5,77,72,67,30.14,30.02,3,0,5,0.00
2014-2-1,14.4,9.6,5.8,5.8,2.4,-0.9,77,72,64,30.39,30.28,3,0,4,0.00
2014-2-2,17.2,13.4,5.8,7.7,6.0,-0.2,82,72,64,30.34,30.13,2,0,3,0.00
2014-2-3,12.9,6.0,-3.5,7.1,-0.5,-10.9,78,74,69,30.59,30.14,4,0,10,0.00
2014-2-4,-2.4,-7.4,-15.3,-9.2,-16.5,-25.1,72,63,56,31.02,30.59,6,0,6,0.00
2014-2-5,-9.8,-16.1,-21.1,-22.5,-26.5,-31.5,64,58,49,31.15,31.01,3,0,7,0.00
2014-2-6,-13.5,-19.8,-27.0,-23.4,-29.8,-37.8,63,59,54,31.01,30.52,2,0,2,0.00
2014-2-7,0.9,-5.5,-18.7,-9.1,-14.4,-28.3,74,65,53,30.52,30.24,2,0,3,0.00
2014-2-8,7.6,1.9,-3.1,-2.7,-6.6,-9.8,74,67,59,30.58,30.22,4,0,4,0.00
2014-2-9,9.9,3.5,-0.2,1.0,-3.9,-7.0,78,71,63,30.49,30.37,3,0,5,0.00
2014-2-10,29.1,14.9,4.8,25.4,9.1,-1.5,90,77,64,30.43,30.09,5,0,5,0.00
2014-2-11,38.2,29.0,21.8,28.8,18.9,8.3,84,66,49,30.19,29.86,11,1,19,0.00
2014-2-12,43.6,34.8,24.2,31.8,22.7,12.1,71,61,51,30.11,29.60,12,1,17,0.33
2014-2-13,40.9,34.5,29.0,31.9,21.4,13.4,86,60,36,30.02,29.71,15,2,23,0.12
2014-2-14,39.2,33.8,27.0,31.0,23.4,11.0,84,66,44,30.07,29.74,13,1,18,0.07
2014-2-15,40.9,33.2,25.7,29.3,21.7,16.0,81,63,42,30.09,29.59,13,0,14,0.01
2014-2-16,41.1,32.0,25.4,29.1,14.2,6.8,74,48,29,30.06,29.52,15,2,21,0.02
2014-2-17,43.8,35.1,26.9,29.3,14.8,8.4,81,44,27,30.03,29.60,13,2,21,0.00
2014-2-18,41.2,33.6,26.1,22.1,16.5,10.5,62,49,37,30.04,29.55,11,1,14,0.00
2014-2-19,34.4,27.4,21.0,28.8,15.7,6.4,88,62,38,30.02,29.50,16,1,21,0.00
2014-2-20,33.1,30.1,25.8,23.6,18.1,11.9,83,61,50,30.10,29.86,12,2,17,0.00
2014-2-21,29.7,24.1,15.9,21.4,17.4,9.9,88,76,56,30.15,29.92,13,1,17,0.00
2014-2-22,19.7,14.8,10.4,12.3,8.5,4.3,83,76,62,30.30,30.16,3,0,4,0.00
2014-2-23,12.8,8.1,4.3,7.8,1.4,-1.9,80,74,69,30.43,30.28,4,0,6,0.00
2014-2-24,8.6,5.9,0.3,1.2,-1.5,-7.2,76,71,65,30.66,30.50,3,0,4,0.00
2014-2-25,11.7,7.5,0.5,5.0,-2.0,-11.2,79,66,38,30.76,30.52,4,0,5,0.00
2014-2-26,8.4,1.6,-5.6,0.2,-5.6,-13.1,77,71,64,30.67,30.27,2,0,3,0.00
2014-2-27,22.4,13.3,4.8,19.4,7.1,-1.4,88,76,64,30.27,29.85,4,0,10,0.00
2014-2-28,16.5,4.4,-6.5,11.4,-2.9,-14.6,80,71,66,30.51,30.04,7,1,10,0.00
2014-3-1,-6.8,-10.5,-14.6,-14.6,-20.1,-25.1,69,62,53,30.68,30.51,5,0,6,0.00
2014-3-2,4.7,-4.1,-14.3,-1.9,-13.5,-23.7,76,63,54,30.63,30.25,4,0,4,0.00
2014-3-3,39.8,25.1,4.1,33.8,19.8,-3.1,90,80,69,30.25,29.85,7,0,11,0.40
2014-3-4,43.1,35.5,28.7,30.2,25.6,20.4,88,69,41,30.01,29.83,8,0,11,0.29
2014-3-5,49.6,38.8,29.8,31.8,27.0,22.2,81,64,36,29.99,29.67,11,1,17,0.22
2014-3-6,45.7,38.9,32.5,33.7,28.7,24.5,90,68,44,29.89,29.65,10,0,17,0.04
2014-3-7,43.3,37.6,32.9,30.0,26.1,22.7,88,64,47,30.25,29.88,15,1,18,0.03
2014-3-8,43.8,37.1,28.4,29.7,23.9,19.0,76,60,39,30.32,29.96,7,0,12,0.00
2014-3-9,51.6,44.2,39.2,32.8,27.3,16.2,72,52,32,29.98,29.83,17,1,20,0.00
2014-3-10,40.1,36.0,34.4,36.3,32.8,28.9,92,88,76,29.92,29.73,7,0,13,0.44
2014-3-11,39.5,30.9,25.3,30.6,24.3,19.7,89,77,55,30.49,30.36,7,0,7,0.14
2014-3-12,48.3,36.5,27.3,25.6,19.7,13.0,74,52,26,30.47,30.13,5,0,9,0.01
2014-3-13,48.9,37.0,28.1,24.7,20.6,13.4,74,53,27,30.11,29.93,13,1,20,0.00
2014-3-14,45.1,37.7,30.7,30.8,22.6,15.1,76,55,37,30.02,29.85,10,0,13,0.00
2014-3-15,46.4,39.7,33.8,24.3,19.2,11.9,59,44,26,30.36,29.99,11,1,17,0.00
2014-3-16,57.8,44.8,36.8,23.6,18.2,7.1,55,37,15,30.29,29.65,11,1,13,0.00
2014-3-17,39.8,34.0,28.2,29.2,25.2,17.3,91,72,42,30.06,29.40,11,1,15,0.04
2014-3-18,36.3,30.1,24.1,25.1,17.9,11.4,88,61,46,30.24,30.06,6,0,10,0.05
2014-3-19,46.5,31.4,20.6,21.7,14.8,8.8,69,52,25,30.24,29.93,8,0,12,0.07
2014-3-20,35.2,30.7,26.4,26.1,15.2,3.1,81,54,28,30.25,29.81,13,1,17,0.01
2014-3-21,29.5,20.1,14.4,20.5,11.2,7.2,83,69,48,30.52,30.26,10,0,11,0.03
2014-3-22,32.1,22.0,8.4,18.4,10.9,2.0,78,63,44,30.64,30.32,7,0,11,0.03
2014-3-23,42.8,28.0,19.4,26.0,16.8,7.7,83,65,28,30.37,30.18,9,0,15,0.02
2014-3-24,30.7,22.5,17.8,16.9,13.8,11.7,80,69,51,30.56,30.36,4,0,6,0.00
2014-3-25,46.4,34.0,16.5,28.4,21.9,11.7,82,62,41,30.41,29.61,4,0,6,0.00
2014-3-26,49.8,38.4,28.4,28.5,24.4,19.7,81,58,32,29.61,29.43,9,0,10,0.00
2014-3-27,39.9,29.8,25.0,34.1,24.4,20.9,88,80,68,29.92,29.60,6,0,10,0.02
2014-3-28,52.8,35.9,24.2,31.2,23.0,14.4,88,64,23,30.09,29.80,11,0,18,0.04
2014-3-29,44.2,38.9,33.5,36.2,29.3,23.7,87,69,45,29.85,29.68,11,0,11,0.04
2014-3-30,42.6,33.6,27.8,29.2,25.7,21.6,88,74,43,30.02,29.75,11,0,12,0.01
2014-3-31,44.3,32.5,23.8,28.8,24.6,18.6,89,74,39,30.13,29.90,6,0,9,0.12
2014-4-1,42.3,35.4,30.6,29.2,25.3,23.6,77,67,53,29.88,29.77,6,0,9,0.00
2014-4-2,50.4,36.3,29.7,26.2,22.2,12.2,80,59,27,29.95,29.73,13,0,13,0.00
2014-4-3,50.4,37.0,27.3,25.4,21.8,16.1,79,57,27,30.08,29.93,10,0,12,0.00
2014-4-4,59.9,40.7,31.0,29.6,21.1,14.7,83,48,20,29.94,29.69,15,1,18,0.00
2014-4-5,57.0,38.9,29.5,27.7,22.4,15.4,82,54,23,29.97,29.79,14,0,14,0.00
2014-4-6,55.7,42.3,34.3,29.5,23.3,18.6,68,48,25,30.14,29.86,20,1,21,0.00
2014-4-7,64.5,46.8,37.8,30.2,26.9,23.1,66,47,24,30.23,30.08,10,1,16,0.00
2014-4-8,70.4,50.5,37.5,32.7,28.2,19.0,69,45,20,30.17,29.83,9,0,12,0.00
2014-4-9,61.5,50.3,39.5,35.3,25.2,14.0,58,39,24,29.96,29.74,15,1,15,0.00
2014-4-10,59.3,44.3,32.8,23.2,17.5,5.3,63,38,14,30.07,29.93,11,1,16,0.00
2014-4-11,69.6,48.4,36.9,27.3,22.9,18.6,56,39,18,29.97,29.65,12,1,14,0.00
2014-4-12,43.1,31.3,22.4,32.1,23.9,15.4,88,74,54,30.32,29.72,10,1,13,0.01
2014-4-13,42.3,27.3,18.9,19.1,11.9,-0.9,84,58,19,30.50,30.32,10,1,16,0.08
2014-4-14,58.6,37.5,21.1,18.1,11.7,4.5,66,39,13,30.48,29.90,8,0,13,0.00
2014-4-15,48.0,41.4,35.8,30.1,21.4,5.4,72,46,19,29.91,29.69,12,1,14,0.00
2014-4-16,48.2,40.6,30.1,25.4,21.7,15.0,69,48,30,30.03,29.89,6,1,10,0.00
2014-4-17,63.4,47.4,34.9,34.5,27.3,20.8,67,48,22,29.98,29.58,12,1,13,0.00
2014-4-18,53.5,42.9,34.4,38.7,26.0,7.1,89,57,19,29.98,29.54,16,1,21,0.02
2014-4-19,61.8,45.3,27.5,21.3,16.9,11.7,56,35,15,30.05,29.76,9,0,11,0.00
2014-4-20,64.8,48.3,37.5,29.3,18.9,10.9,61,34,13,30.20,29.75,14,1,15,0.00
2014-4-21,74.7,50.9,34.1,25.4,20.1,11.2,54,33,9,30.23,29.74,10,0,12,0.00
2014-4-22,68.1,48.2,37.3,41.8,29.7,22.4,90,53,25,29.75,29.30,5,0,9,0.31
2014-4-23,54.2,42.2,34.3,33.2,22.8,15.8,85,49,24,29.89,29.50,14,1,17,0.00
2014-4-24,56.7,41.1,32.4,40.9,32.1,25.6,88,73,36,29.87,29.73,11,1,15,0.04
2014-4-25,58.6,42.5,32.4,39.3,33.1,27.3,90,71,41,29.82,29.55,6,0,11,0.27
2014-4-26,41.8,36.7,33.1,38.4,33.7,30.5,92,89,79,29.71,29.45,4,0,7,0.32
2014-4-27,56.0,40.9,30.0,30.9,23.9,15.4,91,56,23,29.85,29.63,11,1,13,0.02
2014-4-28,53.6,40.9,33.4,22.6,18.7,13.7,60,42,23,30.30,29.80,12,1,16,0.00
2014-4-29,55.9,46.3,36.5,20.8,17.7,12.5,51,34,21,30.56,30.52,11,1,13,0.00
2014-4-30,67.8,47.0,32.1,29.3,21.2,13.1,58,40,15,30.59,30.26,9,0,11,0.00
2014-5-1,78.5,54.3,36.9,34.5,28.7,24.0,70,41,17,30.29,29.91,5,0,10,0.00
2014-5-2,78.6,61.4,42.8,41.8,33.9,21.3,80,41,16,29.87,29.68,14,1,16,0.00
2014-5-3,49.4,43.5,34.4,37.2,34.2,30.0,84,70,56,29.91,29.76,6,0,10,0.00
2014-5-4,62.3,46.0,33.2,44.9,35.1,29.5,93,69,35,29.86,29.70,7,0,13,0.08
2014-5-5,58.4,45.4,34.9,48.5,34.2,29.8,92,66,38,29.82,29.72,5,0,11,0.06
2014-5-6,50.7,40.1,32.1,34.7,28.3,24.0,76,63,39,29.99,29.74,13,1,13,0.00
2014-5-7,52.3,37.9,29.8,29.6,25.2,20.9,83,62,30,30.03,29.86,7,0,11,0.00
2014-5-8,63.4,43.6,28.5,30.0,26.4,21.5,87,56,23,30.00,29.65,6,0,11,0.00
2014-5-9,59.5,45.3,37.8,41.9,30.6,22.0,87,59,25,29.84,29.57,14,0,14,0.06
2014-5-10,51.6,40.6,31.0,33.8,28.0,22.2,78,62,37,30.11,29.78,13,0,13,0.02
2014-5-11,39.2,33.2,29.8,29.0,27.0,24.9,88,78,58,30.49,30.10,6,0,11,0.01
2014-5-12,57.2,39.2,25.3,28.2,20.4,9.2,88,55,16,30.57,30.41,6,0,11,0.05
2014-5-13,65.0,51.8,34.3,27.1,22.9,16.2,60,35,16,30.53,30.31,6,0,9,0.00
2014-5-14,69.3,51.5,36.2,36.2,28.0,22.6,64,43,18,30.37,30.11,7,0,12,0.00
2014-5-15,76.0,64.8,49.5,41.2,34.2,24.9,68,35,17,30.12,29.90,9,1,12,0.00
2014-5-16,60.4,50.9,41.9,43.7,39.3,35.8,90,66,44,30.07,29.95,7,0,11,0.02
2014-5-17,71.5,58.0,41.6,48.7,42.3,37.6,92,59,29,29.98,29.65,7,0,10,0.02
2014-5-18,56.0,48.5,41.8,45.4,40.9,36.0,88,76,53,29.72,29.59,6,0,10,0.07
2014-5-19,66.6,51.5,43.2,37.4,33.8,26.6,78,54,26,29.91,29.72,10,1,15,0.00
2014-5-20,70.8,52.8,37.9,37.1,31.2,18.0,79,49,18,29.99,29.86,8,0,8,0.00
2014-5-21,77.6,56.6,40.5,39.8,32.8,22.8,79,46,16,29.98,29.82,10,0,10,0.00
2014-5-22,76.1,63.5,47.7,43.2,37.7,31.5,70,40,24,30.03,29.86,10,1,13,0.00
2014-5-23,86.1,67.5,53.9,49.7,40.6,32.6,63,40,17,29.94,29.69,6,0,14,0.01
2014-5-24,73.2,60.1,49.1,56.9,43.1,36.6,92,55,31,29.87,29.71,8,0,9,0.06
2014-5-25,72.8,63.1,48.8,46.9,42.5,37.7,78,49,32,29.95,29.72,9,0,12,0.00
2014-5-26,76.3,60.7,48.5,45.1,40.4,36.4,76,49,27,29.92,29.71,10,0,12,0.00
2014-5-27,73.9,56.9,43.1,51.2,39.4,32.0,82,56,24,30.00,29.80,10,0,12,0.02
2014-5-28,76.8,59.4,45.7,51.2,45.6,38.5,90,63,32,29.80,29.59,11,0,12,0.00
2014-5-29,74.0,55.6,42.3,38.8,26.7,17.7,60,37,14,30.06,29.75,10,1,14,0.00
2014-5-30,76.0,57.0,39.6,38.9,27.6,17.2,62,36,13,30.10,29.80,11,0,12,0.00
2014-5-31,79.0,56.9,47.6,44.1,37.2,27.6,73,50,22,29.86,29.67,7,0,12,0.00
2014-6-1,69.4,54.7,46.4,44.3,40.6,36.1,79,61,32,29.97,29.80,10,0,13,0.00
2014-6-2,77.9,56.4,40.5,49.1,39.4,33.9,89,58,26,29.99,29.72,8,0,13,0.00
2014-6-3,79.8,61.1,46.2,43.8,38.0,31.4,76,47,18,29.75,29.63,14,1,15,0.00
2014-6-4,79.0,59.4,44.8,43.4,34.2,26.5,72,43,15,29.88,29.75,12,1,12,0.00
2014-6-5,71.8,56.1,42.1,41.3,34.6,26.6,75,46,20,29.97,29.73,10,1,15,0.00
2014-6-6,70.8,51.6,36.3,36.9,31.9,24.6,84,52,19,30.06,29.91,11,1,13,0.00
2014-6-7,69.8,53.5,38.0,38.6,31.2,23.8,80,47,20,30.03,29.92,7,0,11,0.00
2014-6-8,79.6,59.8,45.4,38.2,29.4,23.8,64,35,13,30.03,29.86,10,0,17,0.00
2014-6-9,83.6,64.2,48.6,37.8,31.2,27.8,50,31,15,29.88,29.63,13,1,15,0.00
2014-6-10,78.5,61.5,46.2,38.3,29.5,18.4,59,34,11,29.80,29.61,11,1,14,0.00
2014-6-11,67.3,53.2,39.8,41.6,36.8,33.9,82,57,31,30.00,29.79,9,0,12,0.00
2014-6-12,77.4,56.6,40.2,52.5,39.1,33.0,81,56,22,29.97,29.51,11,0,13,0.01
2014-6-13,69.1,56.4,49.1,48.3,39.1,25.7,91,56,27,29.77,29.49,15,1,17,0.08
2014-6-14,54.2,49.6,44.2,42.3,35.4,30.6,75,58,44,29.86,29.72,10,0,11,0.02
2014-6-15,71.6,52.9,38.9,44.0,35.9,30.5,90,57,24,29.86,29.55,5,0,10,0.30
2014-6-16,58.3,48.1,41.1,49.7,43.8,39.0,93,86,56,29.68,29.57,6,0,10,0.42
2014-6-17,64.7,49.3,40.5,43.5,37.8,29.5,93,69,30,29.89,29.64,11,1,13,0.23
2014-6-18,57.0,47.6,42.9,41.8,37.1,29.5,91,69,36,29.90,29.80,8,0,10,0.02
2014-6-19,69.8,59.1,43.6,49.0,41.9,34.0,92,55,28,29.91,29.81,8,0,13,0.05
2014-6-20,75.8,57.0,48.2,59.0,45.3,37.3,92,67,34,29.96,29.71,12,0,15,0.03
2014-6-21,74.9,59.5,45.1,48.3,39.7,28.9,92,55,19,29.97,29.80,9,0,10,0.06
2014-6-22,70.4,56.0,45.5,48.2,43.0,38.6,85,63,36,30.03,29.86,13,0,14,0.02
2014-6-23,73.5,58.5,44.2,49.7,44.9,37.4,92,65,28,30.08,29.91,9,0,13,0.00
2014-6-24,76.5,59.2,47.1,53.2,47.5,41.9,88,68,34,29.95,29.77,11,0,12,0.01
2014-6-25,75.6,61.4,50.5,54.4,49.6,43.6,91,69,34,29.86,29.67,10,0,10,0.00
2014-6-26,65.2,56.9,51.0,58.4,52.4,47.6,91,85,63,29.68,29.55,4,0,5,0.01
2014-6-27,75.3,58.5,49.2,50.4,46.5,39.2,90,68,30,29.72,29.55,9,0,15,0.00
2014-6-28,72.0,57.4,46.5,51.3,40.5,34.5,88,57,27,29.84,29.64,10,1,15,0.00
2014-6-29,77.0,57.9,44.8,41.3,36.1,30.9,75,47,20,29.98,29.79,11,1,16,0.00
2014-6-30,74.2,58.8,46.5,44.5,37.8,33.3,70,47,26,30.08,29.92,7,1,11,0.00
2014-7-1,76.8,60.9,46.7,47.5,40.4,30.6,82,51,20,30.15,29.94,10,0,14,0.00
2014-7-2,56.3,55.3,54.8,40.5,40.2,39.7,57,57,55,29.95,29.94,0,0,0,0.00
2014-7-4,85.1,70.1,59.8,65.9,55.6,46.4,89,62,31,29.84,29.70,4,0,6,0.05
2014-7-5,91.0,71.8,56.7,57.1,46.2,34.9,76,46,15,29.90,29.74,13,0,13,0.00
2014-7-6,94.9,74.6,58.0,49.2,39.8,34.4,57,31,15,29.94,29.74,10,1,14,0.00
2014-7-7,81.2,68.4,58.7,52.0,46.2,36.1,72,47,27,30.03,29.78,6,1,11,0.00
2014-7-8,88.0,68.9,52.2,50.3,46.8,43.6,78,49,23,29.98,29.75,11,0,11,0.00
2014-7-9,90.7,71.9,56.9,52.8,46.9,40.9,68,44,19,29.79,29.62,6,0,8,0.00
2014-7-10,93.6,74.8,59.2,52.6,43.3,29.8,63,36,13,29.73,29.54,7,0,10,0.00
2014-7-11,83.0,67.8,59.0,52.8,47.8,30.1,73,51,26,29.98,29.65,9,0,9,0.00
2014-7-12,91.4,71.8,55.9,56.4,47.9,39.2,79,48,19,30.05,29.93,6,0,10,0.00
2014-7-13,93.6,73.5,58.6,48.1,42.6,37.0,63,36,15,30.06,29.89,9,0,12,0.00
2014-7-14,87.0,71.3,58.1,58.8,47.2,41.5,77,45,22,30.05,29.80,6,0,11,0.02
2014-7-15,71.5,61.6,53.8,60.8,55.1,48.6,94,80,52,30.01,29.81,6,0,11,0.43
2014-7-16,85.5,66.1,49.5,57.7,51.8,44.8,94,66,27,30.01,29.77,6,0,9,0.01
2014-7-17,95.6,73.9,56.7,56.5,45.2,30.8,78,42,14,29.80,29.51,10,0,13,0.00
2014-7-18,78.5,65.6,52.2,51.4,44.3,32.9,80,49,21,29.78,29.61,5,0,7,0.00
2014-7-19,88.6,71.0,55.9,45.8,40.8,35.8,56,36,17,29.78,29.60,7,1,14,0.00
2014-7-20,97.3,74.8,58.1,46.0,39.7,29.1,61,33,10,29.67,29.50,10,1,14,0.00
2014-7-21,85.5,62.8,56.0,65.7,51.2,42.9,94,68,30,29.93,29.56,7,0,8,0.24
2014-7-22,81.8,66.4,56.2,60.3,53.4,47.8,87,65,33,30.02,29.87,10,0,12,0.05
2014-7-23,96.3,72.7,55.9,61.5,50.9,41.3,89,54,17,30.01,29.64,9,0,10,0.16
2014-7-24,80.5,64.5,54.7,53.0,42.1,26.1,79,50,16,29.89,29.61,11,1,17,0.01
2014-7-25,84.9,63.8,45.7,39.9,33.7,24.0,72,37,13,29.96,29.76,10,1,14,0.00
2014-7-26,84.9,66.6,49.9,42.6,33.0,23.4,67,34,12,30.04,29.86,10,1,12,0.00
2014-7-27,87.6,68.0,50.2,43.3,36.3,30.3,64,34,15,30.14,29.97,9,0,12,0.00
2014-7-28,92.1,72.5,56.7,46.4,39.6,33.5,58,33,14,30.07,29.88,5,0,12,0.00
2014-7-29,92.1,71.7,59.2,54.9,43.9,37.8,73,39,17,30.01,29.86,13,0,16,0.00
2014-7-30,89.0,71.0,57.8,49.9,44.2,37.7,66,41,20,30.03,29.87,10,0,10,0.00
2014-7-31,92.9,72.1,57.5,48.6,40.1,29.9,63,35,12,29.99,29.84,15,1,17,0.00
2014-8-1,92.9,72.6,58.7,45.7,38.7,29.1,59,32,12,30.02,29.82,10,0,13,0.00
2014-8-2,83.2,67.8,57.2,52.0,47.5,41.0,70,50,27,29.99,29.87,12,0,14,0.02
2014-8-3,91.4,70.3,56.5,50.6,45.6,37.4,69,45,19,30.00,29.80,8,0,11,0.00
2014-8-4,76.3,67.0,57.2,57.6,50.2,46.3,71,55,42,29.94,29.84,8,0,9,0.00
2014-8-5,85.7,71.4,55.9,53.9,45.8,35.9,81,44,19,29.94,29.78,5,0,9,0.00
2014-8-6,91.8,71.8,56.9,52.5,43.2,34.1,71,40,15,29.88,29.71,6,0,10,0.00
2014-8-7,90.3,71.8,56.7,48.1,41.3,33.2,68,37,15,29.87,29.67,6,0,8,0.00
2014-8-8,87.4,72.0,60.1,55.4,44.8,35.4,77,42,18,29.88,29.70,6,0,10,0.02
2014-8-9,84.3,65.5,51.0,50.8,45.7,40.3,85,53,24,30.07,29.81,10,0,11,0.00
2014-8-10,93.6,69.7,53.3,48.3,36.7,15.1,66,36,6,30.09,29.92,6,0,11,0.00
2014-8-11,91.8,72.6,56.5,43.4,36.8,29.3,52,29,15,30.06,29.84,9,0,12,0.00
2014-8-12,91.0,72.1,59.2,57.7,44.2,35.9,61,38,18,29.89,29.73,11,0,16,0.01
2014-8-13,87.4,70.2,58.4,55.1,50.3,41.3,86,54,24,29.87,29.69,11,1,12,0.02
2014-8-14,83.8,66.7,57.3,59.9,54.9,49.8,92,69,38,29.88,29.73,11,0,12,0.07
2014-8-15,77.6,63.0,55.4,58.6,53.4,47.5,93,72,43,29.98,29.74,13,0,13,0.31
2014-8-16,78.1,63.1,51.6,53.0,48.1,41.0,91,63,28,29.98,29.87,6,0,12,0.00
2014-8-17,84.9,66.4,52.3,48.0,44.3,37.9,76,49,21,29.98,29.86,7,0,11,0.00
2014-8-18,60.4,56.3,53.6,46.1,45.0,44.1,73,66,57,29.90,29.85,0,0,0,0.00
2014-8-19,89.5,76.9,65.0,43.4,39.2,34.5,45,27,16,29.58,29.47,5,1,13,0.00
2014-8-20,78.8,62.6,56.0,58.7,47.1,38.6,92,59,27,29.79,29.51,5,0,7,0.18
2014-8-21,70.1,56.6,50.4,50.7,48.5,45.7,90,76,45,30.03,29.79,10,0,10,0.04
2014-8-22,61.2,54.0,48.0,50.2,48.2,45.2,93,82,57,30.03,29.92,7,0,11,0.25
2014-8-23,47.9,44.9,43.3,46.0,42.8,41.4,96,92,89,30.16,30.01,9,0,11,1.67
2014-8-24,53.6,46.3,42.1,46.7,42.5,39.2,94,87,67,30.16,30.07,8,0,9,0.21
2014-8-25,66.4,50.8,39.3,47.0,42.0,37.1,92,74,43,30.16,29.95,9,0,10,0.01
2014-8-26,80.1,58.0,44.1,49.7,43.9,36.2,90,64,26,30.10,29.93,6,0,7,0.00
2014-8-27,85.1,61.5,49.1,47.8,43.0,36.9,80,54,20,30.06,29.85,5,0,10,0.00
2014-8-28,83.8,66.3,52.2,50.9,42.7,33.2,73,46,20,29.96,29.71,12,0,13,0.00
2014-8-29,76.5,60.7,46.4,50.2,45.6,38.3,91,62,32,29.94,29.65,10,1,11,0.00
2014-8-30,71.6,59.7,50.8,54.0,44.6,39.1,79,59,31,29.73,29.61,5,0,9,0.01
2014-8-31,72.7,55.6,47.9,42.7,39.8,35.8,74,57,27,29.85,29.69,8,0,11,0.00
2014-9-1,63.5,52.4,44.1,39.0,35.4,29.0,73,54,30,29.95,29.82,9,1,14,0.00
2014-9-8,68.4,53.6,45.5,42.8,41.2,37.8,75,64,34,29.83,29.65,2,0,6,0.00
2014-9-9,52.8,42.4,36.2,38.0,31.6,29.3,79,66,46,30.20,29.82,14,0,14,0.00
2014-9-10,46.8,37.6,32.9,42.0,32.3,29.7,91,82,64,30.44,30.11,10,0,12,0.12
2014-9-11,52.5,36.0,30.9,32.3,28.9,24.5,91,77,40,30.58,30.41,3,0,7,0.05
2014-9-12,33.2,32.2,29.8,26.5,25.8,24.4,80,77,75,30.46,30.39,3,0,3,0.00
2014-9-13,55.4,45.4,35.8,35.5,33.0,31.0,84,63,42,30.28,30.07,3,0,6,0.00
2014-9-14,66.1,46.3,34.0,39.6,33.6,29.9,89,65,28,30.14,30.02,6,0,6,0.00
2014-9-15,74.0,52.5,37.0,41.9,35.5,31.4,86,56,25,30.16,29.93,4,0,6,0.00
2014-9-16,72.1,57.3,44.5,51.4,39.6,32.5,72,52,33,30.01,29.80,4,0,9,0.00
2014-9-17,73.7,61.5,49.5,57.2,45.3,38.6,81,57,31,29.85,29.65,2,0,5,0.00
2014-9-18,73.9,62.8,53.6,55.3,46.0,38.0,72,55,41,29.66,29.55,7,0,14,0.00
2014-9-19,73.9,64.1,54.2,44.9,39.5,36.5,59,41,27,29.98,29.78,13,1,18,0.00
2014-9-20,71.6,57.2,46.5,45.1,40.3,35.7,79,55,28,30.18,29.98,7,0,10,0.00
2014-9-21,74.9,57.1,44.6,46.7,41.8,37.8,81,59,31,30.18,29.90,3,0,5,0.00
2014-9-22,75.8,61.3,50.1,50.1,45.4,41.3,76,57,35,29.91,29.76,5,0,6,0.00
2014-9-23,75.8,57.9,48.0,57.9,46.2,41.4,83,66,35,29.96,29.80,6,0,7,0.02
2014-9-24,82.0,63.0,53.2,55.0,44.5,35.3,79,56,22,29.90,29.67,12,0,12,0.00
2014-9-25,91.2,70.3,59.6,47.5,37.4,27.5,52,33,13,29.75,29.52,12,0,13,0.00
2014-9-26,66.8,58.4,50.5,51.5,42.7,30.9,84,58,27,29.97,29.47,3,0,8,0.03
2014-9-27,50.2,46.9,45.1,45.9,44.6,43.2,94,92,77,30.16,29.93,4,0,6,0.88
2014-9-28,49.6,46.5,44.8,45.1,43.3,41.2,94,89,74,30.17,30.02,4,0,9,0.00
2014-9-29,64.2,50.4,41.8,49.5,43.6,39.6,93,79,46,30.02,29.67,5,0,9,0.01
2014-9-30,57.2,50.3,41.3,46.9,38.2,30.7,91,65,40,29.90,29.65,9,0,13,0.08
2014-10-1,54.1,45.2,38.9,37.2,30.6,24.1,84,59,32,30.05,29.87,7,0,13,0.01
2014-10-2,45.1,33.0,28.2,30.0,27.8,24.6,90,82,48,30.55,29.97,5,0,12,0.07
2014-10-3,53.6,36.9,26.1,35.4,28.0,15.4,89,74,22,30.58,30.34,4,0,6,0.03
2014-10-4,70.1,60.4,49.2,40.1,35.1,26.2,59,40,26,30.13,29.92,8,1,13,0.00
2014-10-5,69.6,56.6,48.9,41.1,37.8,30.8,67,51,27,30.03,29.89,5,0,12,0.00
2014-10-6,73.2,60.6,50.1,43.8,37.7,30.5,61,43,29,29.91,29.71,12,1,14,0.00
2014-10-7,73.9,61.3,52.5,46.6,41.1,36.2,65,48,28,29.85,29.73,10,0,13,0.00
2014-10-8,64.2,53.8,47.4,45.7,40.7,36.4,74,62,39,29.92,29.78,3,0,4,0.00
2014-10-9,58.3,49.3,43.2,43.6,40.2,38.1,86,72,55,30.08,29.92,4,0,7,0.00
2014-10-10,59.8,48.7,38.5,43.7,40.3,36.1,93,74,49,30.12,29.92,4,0,4,0.00
2014-10-11,63.2,50.8,43.9,43.9,35.1,30.4,87,57,30,29.93,29.64,7,0,12,0.02
2014-10-12,53.1,45.1,38.3,35.9,31.2,26.2,76,59,42,30.17,29.74,12,1,13,0.01
2014-10-13,57.8,46.3,37.0,35.4,29.4,25.4,68,53,33,30.18,29.89,6,0,9,0.00
2014-10-14,68.8,56.0,48.8,35.7,30.7,26.1,52,39,22,29.89,29.63,12,0,13,0.00
2014-10-15,70.4,53.7,44.5,43.5,31.2,23.3,66,44,17,29.84,29.37,13,1,17,0.02
2014-10-16,52.8,44.9,37.6,32.6,27.5,24.1,65,51,34,30.13,29.80,8,0,10,0.00
2014-10-17,54.8,41.3,29.7,33.1,27.9,23.0,81,60,37,30.19,29.96,3,0,5,0.00
2014-10-18,64.0,49.0,38.2,38.1,31.7,26.0,71,53,28,30.04,29.89,9,0,10,0.00
2014-10-19,59.3,48.5,40.3,39.8,35.2,30.4,76,61,45,30.05,29.87,3,0,4,0.00
2014-10-20,67.6,52.4,39.8,37.4,31.9,27.4,73,48,25,29.93,29.63,6,0,9,0.00
2014-10-21,55.3,47.0,40.2,45.8,36.1,31.8,89,67,41,29.94,29.54,6,0,13,0.22
2014-10-22,53.1,43.6,34.6,34.2,30.3,27.9,81,61,38,30.09,29.91,11,0,13,0.01
2014-10-23,62.1,53.9,41.1,40.9,33.9,28.3,78,48,29,29.91,29.74,14,1,14,0.00
2014-10-24,54.7,47.6,39.8,40.8,37.4,34.5,85,68,50,30.07,29.85,4,0,5,0.00
2014-10-25,52.8,43.1,33.2,43.7,37.2,30.6,93,80,57,30.05,29.62,5,0,8,0.00
2014-10-26,53.9,44.6,36.9,37.9,29.4,22.0,74,56,42,29.88,29.55,11,1,15,0.01
2014-10-27,44.8,38.9,32.4,25.0,22.1,17.6,65,51,34,30.18,29.88,12,0,13,0.00
2014-10-28,48.8,36.8,27.0,30.4,22.4,18.2,72,57,32,30.25,30.04,4,0,6,0.00
2014-10-29,52.5,45.6,37.8,34.7,30.8,24.4,71,56,43,30.26,29.94,12,0,13,0.00
2014-10-30,49.5,41.6,36.0,36.5,31.4,27.9,79,67,50,30.32,30.06,3,0,4,0.00
2014-10-31,54.7,44.8,35.6,38.9,33.5,29.7,81,65,48,30.06,29.72,2,0,3,0.00
2014-11-1,53.6,42.8,35.3,38.5,32.8,28.6,92,69,45,29.75,29.47,5,0,7,0.13
2014-11-2,40.6,36.8,33.4,34.8,27.3,19.3,93,69,55,30.11,29.61,6,0,15,0.03
2014-11-3,43.9,39.6,31.2,31.6,26.5,18.6,72,60,46,30.25,30.09,6,0,9,0.00
2014-11-4,51.9,44.5,38.5,34.8,29.6,25.3,68,56,41,30.18,29.92,9,1,14,0.00
2014-11-5,51.1,45.2,41.8,35.2,32.6,29.1,76,62,45,30.34,30.07,5,0,8,0.00
2014-11-6,60.4,52.5,44.2,39.5,31.5,27.1,68,46,29,30.28,29.80,11,0,14,0.00
2014-11-7,49.6,43.4,33.1,40.5,29.2,24.4,76,58,43,30.38,29.77,11,1,16,0.00
2014-11-8,53.6,41.7,32.5,30.3,25.1,17.4,77,55,26,30.34,29.95,6,0,10,0.00
2014-11-9,58.4,38.7,11.2,40.1,25.6,4.0,84,61,35,29.96,29.43,11,1,15,0.01
2014-11-10,19.9,11.6,2.0,11.6,4.4,-6.8,80,72,64,30.71,29.91,9,1,12,0.00
2014-11-11,4.3,1.2,-4.6,-6.6,-8.5,-13.2,70,63,53,31.03,30.70,6,0,7,0.00
2014-11-12,4.7,-0.3,-4.8,-5.4,-8.5,-12.6,72,67,59,31.00,30.84,4,0,5,0.00
2014-11-13,3.5,-0.4,-7.0,-5.0,-8.2,-14.8,73,69,62,30.84,30.45,2,0,3,0.00
2014-11-14,12.1,6.1,-2.6,1.2,-3.8,-9.9,76,64,40,30.54,30.36,5,0,5,0.00
2014-11-15,11.1,6.0,2.4,-0.8,-3.3,-5.5,73,65,49,30.74,30.55,3,0,6,0.00
2014-11-16,19.2,11.9,3.7,7.0,3.2,-4.1,75,68,54,30.81,30.66,3,0,4,0.00
2014-11-17,19.1,14.1,6.7,9.1,6.5,1.6,80,71,62,30.73,30.52,2,0,3,0.00
2014-11-18,28.1,22.1,12.6,17.5,13.9,7.0,79,71,60,30.50,30.32,4,0,4,0.00
2014-11-19,25.0,20.4,12.4,17.5,14.3,7.9,86,77,71,30.39,30.18,2,0,3,0.00
2014-11-20,39.8,30.4,19.4,27.4,22.0,13.4,81,71,51,30.19,29.98,2,0,3,0.06
2014-11-21,40.8,35.8,29.1,27.9,25.2,22.2,77,65,51,30.01,29.58,7,0,10,0.14
2014-11-22,41.9,36.8,30.0,32.8,22.7,11.7,84,57,35,29.80,29.39,22,1,22,0.04
2014-11-23,35.9,32.7,29.4,24.3,18.9,13.9,78,57,44,30.11,29.79,10,1,17,0.00
2014-11-24,34.7,31.9,29.3,21.2,16.8,12.0,65,54,40,30.32,29.97,12,1,14,0.00
2014-11-25,36.9,32.6,28.8,32.7,27.3,15.0,91,82,47,30.24,29.94,6,0,12,0.05
2014-11-26,33.8,31.8,28.4,31.2,29.2,25.6,93,90,85,30.23,30.13,2,0,3,0.06
2014-11-27,47.7,41.0,29.0,34.6,32.2,27.0,94,72,55,30.13,29.72,12,1,15,0.29
2014-11-28,49.2,45.3,30.9,31.9,28.5,19.2,64,52,36,29.72,29.30,12,1,17,0.00
2014-11-29,29.5,-0.5,-7.9,19.2,-8.3,-16.8,77,69,64,30.44,29.36,5,0,7,0.00
2014-11-30,0.7,-3.9,-8.2,-7.4,-11.6,-16.5,72,69,63,30.70,30.44,1,0,2,0.00
2014-12-1,23.9,4.4,-7.5,20.3,-1.7,-15.2,89,75,68,30.65,30.22,2,0,6,0.00
2014-12-2,29.5,22.1,16.4,19.7,13.5,9.0,85,70,47,30.31,30.21,5,0,10,0.00
2014-12-3,23.8,20.6,15.9,17.7,12.8,8.7,78,71,64,30.24,30.04,2,0,3,0.00
2014-12-4,36.5,29.8,21.3,33.8,25.5,15.0,91,84,72,30.07,29.93,3,0,3,0.12
2014-12-5,36.8,33.1,30.0,32.2,29.8,26.6,92,87,83,30.30,30.05,4,0,5,0.10
2014-12-6,40.8,35.7,32.7,32.7,29.4,26.4,86,78,63,30.23,30.06,5,0,7,0.05
2014-12-7,41.9,36.1,28.1,29.3,25.6,20.9,76,66,50,30.36,30.14,6,0,12,0.03
2014-12-8,35.9,30.4,26.0,27.3,23.0,19.8,82,74,59,30.37,30.21,2,0,5,0.01
2014-12-9,44.2,37.7,31.2,31.4,28.0,23.8,78,68,54,30.24,30.04,5,0,8,0.00
2014-12-10,44.3,39.1,36.0,31.6,29.7,26.2,78,69,57,30.12,29.77,5,0,7,0.00
2014-12-11,47.9,44.1,40.2,29.9,26.1,21.7,60,49,36,29.78,29.64,6,0,12,0.00
2014-12-12,56.0,47.8,41.3,29.8,26.9,21.0,62,45,27,29.70,29.57,11,1,18,0.00
2014-12-13,47.6,36.5,29.8,31.5,29.3,25.8,91,77,44,30.17,29.59,5,0,10,0.07
2014-12-14,29.7,26.9,21.6,26.9,23.4,17.6,89,86,83,30.41,30.17,0,0,0,0.00
2014-12-15,27.0,19.9,15.2,21.4,15.7,10.4,87,83,77,30.42,30.31,0,0,0,0.00
2014-12-16,25.8,20.2,14.0,20.5,15.7,9.5,86,83,74,30.33,30.12,0,0,0,0.00
2014-12-17,30.4,25.4,23.5,25.6,21.8,19.9,89,86,79,30.12,30.02,0,0,0,0.00
2014-12-18,30.3,26.6,22.9,24.4,22.2,19.9,88,83,75,30.19,30.08,0,0,0,0.00
2014-12-19,35.5,31.4,27.3,30.3,26.5,22.8,89,82,73,30.10,29.94,8,0,8,0.03
2014-12-20,36.8,31.4,25.7,28.4,23.9,19.6,83,74,59,30.08,29.64,8,0,11,0.06
2014-12-21,38.3,35.9,33.8,28.2,22.7,17.9,78,59,49,29.83,29.56,14,2,21,0.25
2014-12-22,35.9,33.0,30.0,27.2,20.5,17.3,77,60,51,30.31,29.82,11,1,15,0.00
2014-12-23,35.9,31.9,23.5,23.1,17.5,12.2,67,55,41,30.44,29.99,6,0,13,0.00
2014-12-24,42.9,34.6,27.2,29.1,25.5,22.2,91,71,46,29.99,29.45,9,0,12,0.02
2014-12-25,27.2,21.7,15.7,24.4,16.8,10.6,89,81,68,30.17,29.59,6,0,10,0.00
2014-12-26,23.5,17.8,13.1,16.4,12.5,7.5,85,80,70,30.41,30.15,3,0,4,0.00
2014-12-27,28.5,22.3,14.4,19.1,13.8,8.1,79,70,55,30.37,29.96,6,0,10,0.00
2014-12-28,25.4,17.0,7.4,20.0,11.5,1.7,86,79,69,30.62,29.93,5,0,10,0.00
2014-12-29,7.4,-1.0,-11.7,1.7,-9.1,-20.5,77,68,64,31.20,30.60,6,0,7,0.00
2014-12-30,-2.6,-9.8,-15.6,-9.6,-17.8,-24.5,73,67,62,31.27,31.02,2,0,3,0.00
2014-12-31,4.3,0.4,-3.3,-2.6,-6.9,-10.9,78,71,63,31.03,30.65,1,0,3,0.00
2015-1-1,9.5,6.5,0.9,4.9,0.5,-5.2,83,76,68,30.66,30.43,3,0,3,0.00
2015-1-2,24.5,15.5,6.5,22.2,10.3,1.0,91,80,65,30.44,30.04,5,0,5,0.00